sensor_id;sensor_type;location;lat;lon;timestamp;temperature;humidity
3402;DHT22;1714;49.756;8.610;2022-08-19T00:03:27;21.30;57.20
3402;DHT22;1714;49.756;8.610;2022-08-19T00:13:29;21.20;61.80
3402;DHT22;1714;49.756;8.610;2022-08-19T00:23:31;21.10;62.30
3402;DHT22;1714;49.756;8.610;2022-08-19T00:33:36;21.10;60.90
3402;DHT22;1714;49.756;8.610;2022-08-19T00:43:38;21.10;66.80
3402;DHT22;1714;49.756;8.610;2022-08-19T00:53:40;21.10;67.50
3402;DHT22;1714;49.756;8.610;2022-08-19T01:03:43;21.10;70.00
3402;DHT22;1714;49.756;8.610;2022-08-19T01:13:58;21.00;68.70
3402;DHT22;1714;49.756;8.610;2022-08-19T01:24:01;21.10;65.90
3402;DHT22;1714;49.756;8.610;2022-08-19T01:34:03;21.10;67.40
3402;DHT22;1714;49.756;8.610;2022-08-19T01:44:07;21.00;67.30
3402;DHT22;1714;49.756;8.610;2022-08-19T01:54:20;21.10;62.30
3402;DHT22;1714;49.756;8.610;2022-08-19T02:04:27;21.20;64.80
3402;DHT22;1714;49.756;8.610;2022-08-19T02:14:29;21.10;67.00
3402;DHT22;1714;49.756;8.610;2022-08-19T02:24:31;21.20;62.50
3402;DHT22;1714;49.756;8.610;2022-08-19T02:34:34;21.10;65.80
3402;DHT22;1714;49.756;8.610;2022-08-19T02:44:36;20.90;68.70
3402;DHT22;1714;49.756;8.610;2022-08-19T02:54:38;20.90;70.70
3402;DHT22;1714;49.756;8.610;2022-08-19T03:04:40;20.70;70.40
3402;DHT22;1714;49.756;8.610;2022-08-19T03:14:43;20.60;71.70
3402;DHT22;1714;49.756;8.610;2022-08-19T03:24:48;20.60;71.50
3402;DHT22;1714;49.756;8.610;2022-08-19T03:34:50;20.70;67.80
3402;DHT22;1714;49.756;8.610;2022-08-19T03:44:53;20.40;73.70
3402;DHT22;1714;49.756;8.610;2022-08-19T03:54:54;20.30;71.60
3402;DHT22;1714;49.756;8.610;2022-08-19T04:04:57;20.30;71.60
3402;DHT22;1714;49.756;8.610;2022-08-19T04:14:58;20.20;73.20
3402;DHT22;1714;49.756;8.610;2022-08-19T04:25:00;20.10;71.50
3402;DHT22;1714;49.756;8.610;2022-08-19T04:35:02;20.00;72.50
3402;DHT22;1714;49.756;8.610;2022-08-19T04:45:18;19.90;71.80
3402;DHT22;1714;49.756;8.610;2022-08-19T04:55:21;20.00;74.20
3402;DHT22;1714;49.756;8.610;2022-08-19T05:05:23;20.00;74.20
3402;DHT22;1714;49.756;8.610;2022-08-19T05:15:25;20.00;76.60
3402;DHT22;1714;49.756;8.610;2022-08-19T05:25:27;20.20;73.80
3402;DHT22;1714;49.756;8.610;2022-08-19T05:35:29;20.20;73.70
3402;DHT22;1714;49.756;8.610;2022-08-19T05:45:37;20.20;75.70
3402;DHT22;1714;49.756;8.610;2022-08-19T05:55:40;20.30;76.40
3402;DHT22;1714;49.756;8.610;2022-08-19T06:05:42;20.30;76.80
3402;DHT22;1714;49.756;8.610;2022-08-19T06:15:50;20.50;70.10
3402;DHT22;1714;49.756;8.610;2022-08-19T06:25:55;20.70;68.50
3402;DHT22;1714;49.756;8.610;2022-08-19T06:35:57;20.90;61.50
3402;DHT22;1714;49.756;8.610;2022-08-19T06:46:00;21.10;57.60
3402;DHT22;1714;49.756;8.610;2022-08-19T06:56:05;21.40;57.50
3402;DHT22;1714;49.756;8.610;2022-08-19T07:06:13;21.70;53.30
3402;DHT22;1714;49.756;8.610;2022-08-19T07:16:39;22.00;48.80
3402;DHT22;1714;49.756;8.610;2022-08-19T07:26:43;21.90;51.90
3402;DHT22;1714;49.756;8.610;2022-08-19T07:36:50;22.30;47.10
3402;DHT22;1714;49.756;8.610;2022-08-19T07:46:55;23.20;37.80
3402;DHT22;1714;49.756;8.610;2022-08-19T07:56:58;23.90;32.90
3402;DHT22;1714;49.756;8.610;2022-08-19T08:07:00;24.60;32.30
3402;DHT22;1714;49.756;8.610;2022-08-19T08:17:24;24.40;32.90
3402;DHT22;1714;49.756;8.610;2022-08-19T08:27:42;24.00;32.40
3402;DHT22;1714;49.756;8.610;2022-08-19T08:37:46;24.10;32.20
3402;DHT22;1714;49.756;8.610;2022-08-19T08:47:58;24.30;32.80
3402;DHT22;1714;49.756;8.610;2022-08-19T08:58:47;24.40;30.10
3402;DHT22;1714;49.756;8.610;2022-08-19T09:09:14;25.20;27.00
3402;DHT22;1714;49.756;8.610;2022-08-19T09:19:21;25.60;21.70
3402;DHT22;1714;49.756;8.610;2022-08-19T09:29:22;26.10;21.00
3402;DHT22;1714;49.756;8.610;2022-08-19T09:39:25;25.90;22.10
3402;DHT22;1714;49.756;8.610;2022-08-19T09:49:35;25.90;20.50
3402;DHT22;1714;49.756;8.610;2022-08-19T09:59:39;27.30;18.10
3402;DHT22;1714;49.756;8.610;2022-08-19T10:09:41;27.10;17.40
3402;DHT22;1714;49.756;8.610;2022-08-19T10:19:44;26.80;18.20
3402;DHT22;1714;49.756;8.610;2022-08-19T10:29:55;26.80;18.00
3402;DHT22;1714;49.756;8.610;2022-08-19T10:39:59;28.30;15.50
3402;DHT22;1714;49.756;8.610;2022-08-19T10:50:04;28.40;14.90
3402;DHT22;1714;49.756;8.610;2022-08-19T11:00:29;29.40;12.90
3402;DHT22;1714;49.756;8.610;2022-08-19T11:10:33;29.50;10.90
3402;DHT22;1714;49.756;8.610;2022-08-19T11:20:36;30.00;11.10
3402;DHT22;1714;49.756;8.610;2022-08-19T11:30:39;30.60;10.60
3402;DHT22;1714;49.756;8.610;2022-08-19T11:40:41;30.60;8.30
3402;DHT22;1714;49.756;8.610;2022-08-19T11:50:43;30.90;7.20
3402;DHT22;1714;49.756;8.610;2022-08-19T12:00:55;31.00;7.20
3402;DHT22;1714;49.756;8.610;2022-08-19T12:10:57;31.50;6.50
3402;DHT22;1714;49.756;8.610;2022-08-19T12:21:02;31.60;5.90
3402;DHT22;1714;49.756;8.610;2022-08-19T12:31:07;31.80;6.10
3402;DHT22;1714;49.756;8.610;2022-08-19T12:41:30;31.00;6.90
3402;DHT22;1714;49.756;8.610;2022-08-19T12:51:41;31.40;6.20
3402;DHT22;1714;49.756;8.610;2022-08-19T13:01:45;32.10;5.20
3402;DHT22;1714;49.756;8.610;2022-08-19T13:11:48;31.80;3.80
3402;DHT22;1714;49.756;8.610;2022-08-19T13:21:51;32.20;4.20
3402;DHT22;1714;49.756;8.610;2022-08-19T13:31:58;31.10;3.10
3402;DHT22;1714;49.756;8.610;2022-08-19T13:42:25;31.20;3.90
3402;DHT22;1714;49.756;8.610;2022-08-19T13:52:28;31.20;3.60
3402;DHT22;1714;49.756;8.610;2022-08-19T14:02:30;31.90;2.90
3402;DHT22;1714;49.756;8.610;2022-08-19T14:12:34;30.40;3.60
3402;DHT22;1714;49.756;8.610;2022-08-19T14:22:38;30.90;3.60
3402;DHT22;1714;49.756;8.610;2022-08-19T14:32:41;31.60;3.90
3402;DHT22;1714;49.756;8.610;2022-08-19T14:42:46;31.80;3.80
3402;DHT22;1714;49.756;8.610;2022-08-19T14:52:56;31.10;2.90
3402;DHT22;1714;49.756;8.610;2022-08-19T15:03:08;31.10;3.20
3402;DHT22;1714;49.756;8.610;2022-08-19T15:13:10;31.70;2.40
3402;DHT22;1714;49.756;8.610;2022-08-19T15:23:11;31.50;3.20
3402;DHT22;1714;49.756;8.610;2022-08-19T15:33:14;31.10;2.90
3402;DHT22;1714;49.756;8.610;2022-08-19T15:43:20;30.70;4.30
3402;DHT22;1714;49.756;8.610;2022-08-19T15:53:22;30.70;3.40
3402;DHT22;1714;49.756;8.610;2022-08-19T16:03:27;30.50;3.40
3402;DHT22;1714;49.756;8.610;2022-08-19T16:13:53;30.60;3.60
3402;DHT22;1714;49.756;8.610;2022-08-19T16:23:58;30.30;2.40
3402;DHT22;1714;49.756;8.610;2022-08-19T16:34:00;30.10;3.20
3402;DHT22;1714;49.756;8.610;2022-08-19T16:44:03;30.10;3.90
3402;DHT22;1714;49.756;8.610;2022-08-19T16:54:06;30.10;4.80
3402;DHT22;1714;49.756;8.610;2022-08-19T17:04:09;29.50;5.30
3402;DHT22;1714;49.756;8.610;2022-08-19T17:14:11;29.40;6.10
3402;DHT22;1714;49.756;8.610;2022-08-19T17:24:15;29.10;6.50
3402;DHT22;1714;49.756;8.610;2022-08-19T17:34:17;28.70;6.90
3402;DHT22;1714;49.756;8.610;2022-08-19T17:44:19;28.60;7.80
3402;DHT22;1714;49.756;8.610;2022-08-19T17:54:21;28.40;7.90
3402;DHT22;1714;49.756;8.610;2022-08-19T18:04:33;28.10;8.10
3402;DHT22;1714;49.756;8.610;2022-08-19T18:14:37;27.80;7.40
3402;DHT22;1714;49.756;8.610;2022-08-19T18:24:41;27.60;8.00
3402;DHT22;1714;49.756;8.610;2022-08-19T18:34:44;27.20;10.20
3402;DHT22;1714;49.756;8.610;2022-08-19T18:44:46;26.90;9.90
3402;DHT22;1714;49.756;8.610;2022-08-19T18:55:07;26.50;9.60
3402;DHT22;1714;49.756;8.610;2022-08-19T19:05:13;26.20;10.10
3402;DHT22;1714;49.756;8.610;2022-08-19T19:15:15;25.90;9.60
3402;DHT22;1714;49.756;8.610;2022-08-19T19:25:18;25.50;10.30
3402;DHT22;1714;49.756;8.610;2022-08-19T19:35:21;25.20;10.70
3402;DHT22;1714;49.756;8.610;2022-08-19T19:45:23;24.90;11.60
3402;DHT22;1714;49.756;8.610;2022-08-19T19:55:26;24.70;11.30
3402;DHT22;1714;49.756;8.610;2022-08-19T20:05:28;24.50;12.60
3402;DHT22;1714;49.756;8.610;2022-08-19T20:15:31;24.20;14.50
3402;DHT22;1714;49.756;8.610;2022-08-19T20:25:39;24.00;13.80
3402;DHT22;1714;49.756;8.610;2022-08-19T20:35:42;23.90;13.70
3402;DHT22;1714;49.756;8.610;2022-08-19T20:45:45;23.80;14.30
3402;DHT22;1714;49.756;8.610;2022-08-19T20:55:49;23.60;15.80
3402;DHT22;1714;49.756;8.610;2022-08-19T21:05:58;23.40;16.80
3402;DHT22;1714;49.756;8.610;2022-08-19T21:16:00;23.10;17.80
3402;DHT22;1714;49.756;8.610;2022-08-19T21:26:08;22.80;18.70
3402;DHT22;1714;49.756;8.610;2022-08-19T21:36:14;22.60;19.50
3402;DHT22;1714;49.756;8.610;2022-08-19T21:46:21;22.40;20.80
3402;DHT22;1714;49.756;8.610;2022-08-19T21:56:25;22.10;21.50
3402;DHT22;1714;49.756;8.610;2022-08-19T22:06:27;22.00;20.70
3402;DHT22;1714;49.756;8.610;2022-08-19T22:16:30;21.80;21.10
3402;DHT22;1714;49.756;8.610;2022-08-19T22:26:33;21.80;19.10
3402;DHT22;1714;49.756;8.610;2022-08-19T22:36:35;21.50;21.00
3402;DHT22;1714;49.756;8.610;2022-08-19T22:46:38;21.30;23.80
3402;DHT22;1714;49.756;8.610;2022-08-19T22:56:42;21.20;25.10
3402;DHT22;1714;49.756;8.610;2022-08-19T23:06:45;21.10;26.10
3402;DHT22;1714;49.756;8.610;2022-08-19T23:16:47;21.10;25.40
3402;DHT22;1714;49.756;8.610;2022-08-19T23:26:54;21.00;26.00
3402;DHT22;1714;49.756;8.610;2022-08-19T23:37:14;20.90;26.70
3402;DHT22;1714;49.756;8.610;2022-08-19T23:47:16;20.70;27.00
3402;DHT22;1714;49.756;8.610;2022-08-19T23:57:18;20.50;28.60
